Scarboro, Illinois
Current Conditions -  °F | °C
As of 10:55 PM on Monday 22 Dec 2014 (Local Time) from KRPJ Reporting Station
Light Rain Light Rain  
Wind Chill: 32°   Ceiling: 400
Heat Index: 40°   Visibility: 2mi
Dew Point: 39°   Wind: 14mph
Humidity: 99%   Direction: 120°ESE
Pressure: 29.56"   Gusts: NA
Location:  41.8255°N, 89.0204°W
Report Text: KRPJ 230455Z AUTO 12012KT 2SM -RA OVC004 04/04 A2956 RMK AO2 T00420041
Loading
Personal Weather Stations






























Interactive Weather Map New forecast layout! Learn more

10-Day Weather Forecast

Advertisements
Track Severe Weather on mobile